createdAt,value
2022-09-29T00:03:30.895Z,11.56
2022-09-29T00:08:33.908Z,11.66
2022-09-29T00:13:38.187Z,11.70
2022-09-29T00:18:41.888Z,11.62
2022-09-29T00:23:44.806Z,11.63
2022-09-29T00:28:52.671Z,11.65
2022-09-29T00:33:55.708Z,11.65
2022-09-29T00:38:59.473Z,11.73
2022-09-29T00:44:04.678Z,11.66
2022-09-29T00:49:11.689Z,11.67
2022-09-29T00:54:16.134Z,11.64
2022-09-29T00:59:24.510Z,11.69
2022-09-29T01:04:27.563Z,11.68
2022-09-29T01:09:32.188Z,11.65
2022-09-29T01:14:38.290Z,11.63
2022-09-29T01:19:47.922Z,11.55
2022-09-29T01:24:57.298Z,11.46
2022-09-29T01:30:14.519Z,11.60
2022-09-29T01:35:23.558Z,11.42
2022-09-29T01:40:30.796Z,11.48
2022-09-29T01:45:34.738Z,11.45
2022-09-29T01:50:40.794Z,11.47
2022-09-29T01:55:45.764Z,11.44
2022-09-29T02:00:51.871Z,11.39
2022-09-29T02:05:57.879Z,11.41
2022-09-29T02:11:02.637Z,11.41
2022-09-29T02:16:06.538Z,11.42
2022-09-29T02:21:10.824Z,11.32
2022-09-29T02:26:14.028Z,11.21
2022-09-29T02:31:17.453Z,11.28
2022-09-29T02:36:28.320Z,11.25
2022-09-29T02:41:35.710Z,11.25
2022-09-29T02:46:44.580Z,11.18
2022-09-29T02:51:50.384Z,11.15
2022-09-29T02:56:59.191Z,11.04
2022-09-29T03:02:02.291Z,10.85
2022-09-29T03:07:07.636Z,10.88
2022-09-29T03:12:10.568Z,10.86
2022-09-29T03:17:13.556Z,10.97
2022-09-29T03:22:18.488Z,10.97
2022-09-29T03:27:21.542Z,10.97
2022-09-29T03:32:24.497Z,11.17
2022-09-29T03:37:28.830Z,11.13
2022-09-29T03:42:32.619Z,11.20
2022-09-29T03:47:35.569Z,11.17
2022-09-29T03:52:39.791Z,11.26
2022-09-29T03:57:42.784Z,11.07
2022-09-29T04:02:45.670Z,11.08
2022-09-29T04:07:50.044Z,10.93
2022-09-29T04:12:53.372Z,10.83
2022-09-29T04:17:56.776Z,10.93
2022-09-29T04:23:01.179Z,10.94
2022-09-29T04:28:04.431Z,10.94
2022-09-29T04:33:07.411Z,10.66
2022-09-29T04:38:11.871Z,10.87
2022-09-29T04:43:14.821Z,10.80
2022-09-29T04:48:17.909Z,10.90
2022-09-29T04:53:22.161Z,10.72
2022-09-29T04:58:25.134Z,10.61
2022-09-29T05:03:28.174Z,10.64
2022-09-29T05:08:32.845Z,10.69
2022-09-29T05:13:36.139Z,10.77
2022-09-29T05:18:39.113Z,10.67
2022-09-29T05:23:43.961Z,10.56
2022-09-29T05:28:47.851Z,10.71
2022-09-29T05:33:51.068Z,10.87
2022-09-29T05:38:56.297Z,10.89
2022-09-29T05:44:01.364Z,10.90
2022-09-29T05:49:04.619Z,10.97
2022-09-29T05:54:09.106Z,11.04
2022-09-29T05:59:12.137Z,11.08
2022-09-29T06:04:15.593Z,11.14
2022-09-29T06:09:20.113Z,11.07
2022-09-29T06:14:23.336Z,10.98
2022-09-29T06:19:26.433Z,11.01
2022-09-29T06:24:32.630Z,11.06
2022-09-29T06:29:35.658Z,11.14
2022-09-29T06:34:59.468Z,11.23
2022-09-29T06:40:08.814Z,11.15
2022-09-29T06:45:13.822Z,11.15
2022-09-29T06:50:22.947Z,11.31
2022-09-29T06:55:27.816Z,11.36
2022-09-29T07:00:30.927Z,11.49
2022-09-29T07:05:34.045Z,11.54
2022-09-29T07:10:38.748Z,11.53
2022-09-29T07:15:41.732Z,11.69
2022-09-29T07:20:44.864Z,11.77
2022-09-29T07:25:51.941Z,11.78
2022-09-29T07:31:12.578Z,11.74
2022-09-29T07:36:18.674Z,11.65
2022-09-29T07:41:24.753Z,11.78
2022-09-29T07:46:27.819Z,11.75
2022-09-29T07:51:30.852Z,11.77
2022-09-29T07:56:35.457Z,11.87
2022-09-29T08:01:38.549Z,11.86
2022-09-29T08:06:43.611Z,12.02
2022-09-29T08:11:50.054Z,12.31
2022-09-29T08:16:54.239Z,12.27
2022-09-29T08:21:57.388Z,12.46
2022-09-29T08:27:12.161Z,12.40
2022-09-29T08:32:19.005Z,12.22
2022-09-29T08:37:22.056Z,12.41
2022-09-29T08:42:40.309Z,12.40
2022-09-29T08:47:48.484Z,12.44
2022-09-29T08:52:54.774Z,12.56
2022-09-29T08:58:00.448Z,12.59
2022-09-29T09:03:15.114Z,12.93
2022-09-29T09:08:23.562Z,12.70
2022-09-29T09:13:36.247Z,12.66
2022-09-29T09:18:47.779Z,12.49
2022-09-29T09:23:58.315Z,12.63
2022-09-29T09:29:07.610Z,12.71
2022-09-29T09:34:14.094Z,12.94
2022-09-29T09:39:21.549Z,13.12
2022-09-29T09:44:29.193Z,13.04
2022-09-29T09:49:33.962Z,13.15
2022-09-29T09:54:37.818Z,13.03
2022-09-29T09:59:48.698Z,13.08
2022-09-29T10:04:52.801Z,13.07
2022-09-29T10:10:03.433Z,13.05
2022-09-29T10:15:16.403Z,13.00
2022-09-29T10:20:30.728Z,12.99
2022-09-29T10:25:34.136Z,13.06
2022-09-29T10:30:38.440Z,12.98
2022-09-29T10:35:42.444Z,12.88
2022-09-29T10:40:58.307Z,12.87
2022-09-29T10:46:02.816Z,12.97
2022-09-29T10:51:06.372Z,12.93
2022-09-29T10:56:17.358Z,13.04
2022-09-29T11:01:22.064Z,13.03
2022-09-29T11:06:27.360Z,13.09
2022-09-29T11:11:31.941Z,13.26
2022-09-29T11:16:37.157Z,13.16
2022-09-29T11:21:59.275Z,13.27
2022-09-29T11:27:07.440Z,13.39
2022-09-29T11:32:21.431Z,13.67
2022-09-29T11:37:35.020Z,13.62
2022-09-29T11:42:57.137Z,13.73
2022-09-29T11:48:19.209Z,13.66
2022-09-29T11:53:42.623Z,13.56
2022-09-29T11:58:54.215Z,13.58
2022-09-29T12:04:09.998Z,13.66
2022-09-29T12:09:25.250Z,13.77
2022-09-29T12:14:37.654Z,14.07
2022-09-29T12:19:46.847Z,14.25
2022-09-29T12:24:52.198Z,14.16
2022-09-29T12:29:58.167Z,14.29
2022-09-29T12:35:05.912Z,14.19
2022-09-29T12:40:13.244Z,14.10
2022-09-29T12:45:20.931Z,14.08
2022-09-29T12:50:27.046Z,13.81
2022-09-29T12:55:33.136Z,13.78
2022-09-29T13:00:37.028Z,13.71
2022-09-29T13:05:51.873Z,13.66
2022-09-29T13:11:07.257Z,13.63
2022-09-29T13:16:15.058Z,13.57
2022-09-29T13:21:25.240Z,13.62
2022-09-29T13:26:37.849Z,13.58
2022-09-29T13:36:47.427Z,13.53
2022-09-29T13:41:55.732Z,13.41
2022-09-29T13:47:18.663Z,13.38
2022-09-29T13:52:31.933Z,13.30
2022-09-29T13:57:34.866Z,13.38
2022-09-29T14:02:39.673Z,13.77
2022-09-29T14:07:44.909Z,13.83
2022-09-29T14:12:52.971Z,13.82
2022-09-29T14:17:58.341Z,13.78
2022-09-29T14:23:04.774Z,13.78
2022-09-29T14:28:10.391Z,13.79
2022-09-29T14:33:17.043Z,13.64
2022-09-29T14:38:23.988Z,13.56
2022-09-29T14:43:34.248Z,13.43
2022-09-29T14:49:00.256Z,13.39
2022-09-29T14:54:08.241Z,13.36
2022-09-29T14:59:17.749Z,13.34
2022-09-29T15:04:23.644Z,13.32
2022-09-29T15:09:28.271Z,13.27
2022-09-29T15:14:32.375Z,13.15
2022-09-29T15:19:49.901Z,13.08
2022-09-29T15:25:08.214Z,13.09
2022-09-29T15:30:15.978Z,13.01
2022-09-29T15:35:21.830Z,12.95
2022-09-29T15:40:27.239Z,12.92
2022-09-29T15:45:30.737Z,12.87
2022-09-29T15:50:35.703Z,12.82
2022-09-29T15:55:40.154Z,12.74
2022-09-29T16:00:44.606Z,12.66
2022-09-29T16:05:55.259Z,12.58
2022-09-29T16:11:01.309Z,12.48
2022-09-29T16:16:05.763Z,12.36
2022-09-29T16:21:10.542Z,12.30
2022-09-29T16:26:18.470Z,12.24
2022-09-29T16:31:24.066Z,12.15
2022-09-29T16:36:28.408Z,12.04
2022-09-29T16:41:38.171Z,12.01
2022-09-29T16:46:46.619Z,11.90
2022-09-29T16:51:50.784Z,11.85
2022-09-29T16:57:08.630Z,11.77
2022-09-29T17:02:13.532Z,11.73
2022-09-29T17:07:17.216Z,11.66
2022-09-29T17:12:20.183Z,11.55
2022-09-29T17:17:25.826Z,11.55
2022-09-29T17:22:30.407Z,11.50
2022-09-29T17:27:50.750Z,11.38
2022-09-29T17:32:55.733Z,11.32
2022-09-29T17:37:58.839Z,11.30
2022-09-29T17:43:02.158Z,11.33
2022-09-29T17:48:06.511Z,11.33
2022-09-29T17:53:11.602Z,11.32
2022-09-29T17:58:16.222Z,11.25
2022-09-29T18:03:21.716Z,11.24
2022-09-29T18:08:25.546Z,11.21
2022-09-29T18:13:29.017Z,11.14
2022-09-29T18:18:35.691Z,11.08
2022-09-29T18:23:38.747Z,11.07
2022-09-29T18:28:41.698Z,11.04
2022-09-29T18:33:46.072Z,10.99
2022-09-29T18:38:49.211Z,10.94
2022-09-29T18:43:54.139Z,10.91
2022-09-29T18:49:04.026Z,10.87
2022-09-29T18:54:07.755Z,10.84
2022-09-29T18:59:12.089Z,10.73
2022-09-29T19:04:16.508Z,10.64
2022-09-29T19:09:19.876Z,10.66
2022-09-29T19:14:23.311Z,10.71
2022-09-29T19:19:28.092Z,10.71
2022-09-29T19:24:31.115Z,10.76
2022-09-29T19:29:34.310Z,10.68
2022-09-29T19:34:39.092Z,10.62
2022-09-29T19:39:46.633Z,10.58
2022-09-29T19:44:50.682Z,10.55
2022-09-29T19:50:15.417Z,10.59
2022-09-29T19:55:18.516Z,10.59
2022-09-29T20:00:22.097Z,10.56
2022-09-29T20:05:26.575Z,10.53
2022-09-29T20:10:30.132Z,10.48
2022-09-29T20:15:33.692Z,10.48
2022-09-29T20:20:42.490Z,10.39
2022-09-29T20:25:45.468Z,10.35
2022-09-29T20:30:48.429Z,10.29
2022-09-29T20:35:53.196Z,10.33
2022-09-29T20:41:00.509Z,10.29
2022-09-29T20:46:04.290Z,10.33
2022-09-29T20:51:15.246Z,10.22
2022-09-29T20:56:18.671Z,10.18
2022-09-29T21:01:22.779Z,10.16
2022-09-29T21:06:27.801Z,10.16
2022-09-29T21:11:37.983Z,10.12
2022-09-29T21:16:42.138Z,10.07
2022-09-29T21:21:46.598Z,10.02
2022-09-29T21:26:49.662Z,9.98
2022-09-29T21:31:52.716Z,9.88
2022-09-29T21:36:57.461Z,9.90
2022-09-29T21:42:00.391Z,9.89
2022-09-29T21:47:03.435Z,9.89
2022-09-29T21:52:07.883Z,9.76
2022-09-29T21:57:10.894Z,9.44
2022-09-29T22:02:13.948Z,9.45
2022-09-29T22:07:19.703Z,9.61
2022-09-29T22:12:23.457Z,9.70
2022-09-29T22:17:26.625Z,9.68
2022-09-29T22:22:31.348Z,9.61
2022-09-29T22:27:34.337Z,9.46
2022-09-29T22:32:37.404Z,9.37
2022-09-29T22:37:41.723Z,9.32
2022-09-29T22:42:44.679Z,9.39
2022-09-29T22:47:47.639Z,9.33
2022-09-29T22:52:53.036Z,9.32
2022-09-29T22:57:56.602Z,9.35
2022-09-29T23:02:59.603Z,9.42
2022-09-29T23:08:04.098Z,9.41
2022-09-29T23:13:07.181Z,9.34
2022-09-29T23:18:10.164Z,9.27
2022-09-29T23:23:14.537Z,9.22
2022-09-29T23:28:17.525Z,9.30
2022-09-29T23:33:21.265Z,9.17
2022-09-29T23:38:43.008Z,9.16
2022-09-29T23:43:45.980Z,9.17
2022-09-29T23:48:48.898Z,8.97
2022-09-29T23:53:53.216Z,8.95
2022-09-29T23:58:56.454Z,8.95
